createdAt,value
2023-02-15T00:00:46.396Z,21.77
2023-02-15T00:03:13.019Z,22.20
2023-02-15T00:05:39.642Z,20.82
2023-02-15T00:08:06.300Z,20.53
2023-02-15T00:10:32.940Z,20.69
2023-02-15T00:13:01.120Z,20.68
2023-02-15T00:15:27.833Z,20.99
2023-02-15T00:17:54.482Z,20.85
2023-02-15T00:20:21.165Z,20.30
2023-02-15T00:22:47.767Z,19.34
2023-02-15T00:25:14.385Z,20.12
2023-02-15T00:27:41.078Z,19.53
2023-02-15T00:30:08.162Z,19.57
2023-02-15T00:32:34.792Z,19.09
2023-02-15T00:35:01.538Z,19.09
2023-02-15T00:37:28.203Z,18.92
2023-02-15T00:39:54.848Z,19.12
2023-02-15T00:42:21.452Z,18.54
2023-02-15T00:44:48.040Z,18.85
2023-02-15T00:47:14.637Z,18.78
2023-02-15T00:49:41.276Z,19.12
2023-02-15T00:52:07.928Z,19.12
2023-02-15T00:54:34.991Z,18.48
2023-02-15T00:57:01.749Z,18.87
2023-02-15T00:59:28.394Z,19.44
2023-02-15T01:01:55.141Z,19.23
2023-02-15T01:04:21.814Z,19.04
2023-02-15T01:06:48.457Z,18.97
2023-02-15T01:09:15.169Z,19.41
2023-02-15T01:11:41.874Z,19.23
2023-02-15T01:14:08.584Z,19.45
2023-02-15T01:16:35.247Z,19.23
2023-02-15T01:19:01.860Z,19.49
2023-02-15T01:21:28.477Z,19.49
2023-02-15T01:23:55.159Z,19.11
2023-02-15T01:26:21.886Z,19.17
2023-02-15T01:28:48.539Z,18.92
2023-02-15T01:31:17.448Z,19.04
2023-02-15T01:33:44.143Z,18.59
2023-02-15T01:36:10.880Z,19.10
2023-02-15T01:38:37.536Z,18.31
2023-02-15T01:41:04.207Z,18.55
2023-02-15T01:43:43.718Z,18.63
2023-02-15T01:46:11.035Z,18.55
2023-02-15T01:48:37.694Z,17.83
2023-02-15T01:51:04.544Z,18.01
2023-02-15T01:54:05.769Z,18.18
2023-02-15T01:56:34.375Z,18.38
2023-02-15T01:59:03.865Z,18.18
2023-02-15T02:01:30.532Z,18.77
2023-02-15T02:04:17.381Z,18.47
2023-02-15T02:06:44.000Z,19.32
2023-02-15T02:09:10.615Z,19.50
2023-02-15T02:11:37.255Z,19.85
2023-02-15T02:14:03.887Z,20.01
2023-02-15T02:16:58.454Z,21.00
2023-02-15T02:19:58.965Z,21.42
2023-02-15T02:22:43.634Z,22.25
2023-02-15T02:25:16.223Z,22.98
2023-02-15T02:28:20.534Z,23.23
2023-02-15T02:31:11.039Z,23.06
2023-02-15T02:34:19.098Z,23.74
2023-02-15T02:36:48.350Z,23.22
2023-02-15T02:39:51.966Z,23.02
2023-02-15T02:42:26.865Z,23.30
2023-02-15T02:44:56.703Z,22.99
2023-02-15T02:47:27.956Z,22.73
2023-02-15T02:50:00.164Z,22.27
2023-02-15T02:52:42.986Z,21.99
2023-02-15T02:55:28.015Z,21.92
2023-02-15T02:57:56.845Z,21.49
2023-02-15T03:00:25.118Z,21.36
2023-02-15T03:02:53.258Z,21.35
2023-02-15T03:05:22.383Z,21.11
2023-02-15T03:07:50.652Z,21.78
2023-02-15T03:10:17.363Z,22.50
2023-02-15T03:12:44.017Z,21.96
2023-02-15T03:15:19.384Z,21.87
2023-02-15T03:17:47.897Z,21.80
2023-02-15T03:20:23.875Z,20.82
2023-02-15T03:22:56.114Z,21.10
2023-02-15T03:25:24.521Z,20.46
2023-02-15T03:27:54.286Z,20.06
2023-02-15T03:30:21.687Z,19.72
2023-02-15T03:32:48.902Z,20.17
2023-02-15T03:35:15.672Z,19.87
2023-02-15T03:37:49.621Z,19.28
2023-02-15T03:40:28.982Z,20.01
2023-02-15T03:43:28.490Z,20.40
2023-02-15T03:45:57.524Z,19.98
2023-02-15T03:48:37.126Z,19.92
2023-02-15T03:51:09.444Z,20.32
2023-02-15T03:53:36.034Z,19.96
2023-02-15T03:56:03.077Z,20.10
2023-02-15T03:58:29.873Z,20.68
2023-02-15T04:00:59.186Z,20.45
2023-02-15T04:03:29.517Z,21.07
2023-02-15T04:05:56.129Z,21.02
2023-02-15T04:08:22.770Z,21.50
2023-02-15T04:10:49.677Z,21.07
2023-02-15T04:13:17.514Z,21.21
2023-02-15T04:15:44.159Z,21.36
2023-02-15T04:18:10.819Z,21.20
2023-02-15T04:20:37.433Z,19.81
2023-02-15T04:23:07.059Z,19.57
2023-02-15T04:25:33.701Z,19.94
2023-02-15T04:28:00.361Z,19.61
2023-02-15T04:30:27.002Z,19.65
2023-02-15T04:32:54.711Z,19.97
2023-02-15T04:35:21.516Z,19.35
2023-02-15T04:37:48.186Z,19.54
2023-02-15T04:40:16.445Z,19.87
2023-02-15T04:42:44.619Z,19.94
2023-02-15T04:45:11.232Z,20.38
2023-02-15T04:47:37.873Z,20.08
2023-02-15T04:50:04.956Z,19.91
2023-02-15T04:52:31.600Z,20.90
2023-02-15T04:54:58.253Z,20.90
2023-02-15T04:57:24.847Z,20.57
2023-02-15T04:59:51.503Z,22.74
2023-02-15T05:02:18.104Z,23.16
2023-02-15T05:04:44.762Z,23.34
2023-02-15T05:07:11.405Z,23.44
2023-02-15T05:09:38.053Z,23.40
2023-02-15T05:12:04.881Z,24.13
2023-02-15T05:14:31.596Z,23.15
2023-02-15T05:16:58.255Z,23.19
2023-02-15T05:19:24.864Z,23.02
2023-02-15T05:21:51.500Z,23.20
2023-02-15T05:24:18.143Z,22.88
2023-02-15T05:26:44.846Z,23.68
2023-02-15T05:29:11.536Z,22.53
2023-02-15T05:31:38.294Z,21.98
2023-02-15T05:34:05.184Z,22.16
2023-02-15T05:36:31.833Z,22.10
2023-02-15T05:38:58.476Z,21.26
2023-02-15T05:41:25.087Z,21.65
2023-02-15T05:43:51.695Z,20.28
2023-02-15T05:46:18.395Z,21.08
2023-02-15T05:48:45.090Z,20.55
2023-02-15T05:51:12.787Z,20.63
2023-02-15T05:53:39.537Z,20.62
2023-02-15T05:56:07.365Z,20.07
2023-02-15T05:58:38.311Z,20.03
2023-02-15T06:01:11.466Z,21.23
2023-02-15T06:03:38.131Z,20.38
2023-02-15T06:06:04.916Z,20.93
2023-02-15T06:08:32.590Z,20.60
2023-02-15T06:10:59.191Z,20.72
2023-02-15T06:13:25.831Z,21.39
2023-02-15T06:15:52.620Z,21.79
2023-02-15T06:18:19.427Z,22.06
2023-02-15T06:20:49.027Z,22.81
2023-02-15T06:23:15.785Z,23.42
2023-02-15T06:25:42.447Z,23.43
2023-02-15T06:28:09.061Z,24.81
2023-02-15T06:30:35.772Z,25.73
2023-02-15T06:33:02.392Z,24.70
2023-02-15T06:35:29.074Z,25.26
2023-02-15T06:37:55.722Z,23.67
2023-02-15T06:40:22.388Z,24.03
2023-02-15T06:42:49.053Z,24.14
2023-02-15T06:45:15.722Z,24.02
2023-02-15T06:47:42.440Z,24.13
2023-02-15T06:50:09.660Z,23.77
2023-02-15T06:52:36.330Z,24.91
2023-02-15T06:55:02.997Z,23.89
2023-02-15T06:57:29.619Z,23.66
2023-02-15T06:59:56.257Z,23.56
2023-02-15T07:02:22.912Z,23.20
2023-02-15T07:04:49.750Z,22.89
2023-02-15T07:07:16.475Z,21.52
2023-02-15T07:09:43.099Z,20.99
2023-02-15T07:12:10.208Z,21.13
2023-02-15T07:14:36.852Z,19.63
2023-02-15T07:17:03.563Z,20.39
2023-02-15T07:19:30.175Z,19.51
2023-02-15T07:22:08.836Z,19.89
2023-02-15T07:24:35.467Z,20.55
2023-02-15T07:27:02.149Z,20.79
2023-02-15T07:29:28.762Z,20.58
2023-02-15T07:31:56.059Z,20.59
2023-02-15T07:34:28.502Z,20.60
2023-02-15T07:36:55.155Z,20.80
2023-02-15T07:39:21.873Z,21.57
2023-02-15T07:41:48.477Z,22.00
2023-02-15T07:44:15.372Z,22.45
2023-02-15T07:46:42.012Z,21.87
2023-02-15T07:49:08.700Z,22.02
2023-02-15T07:51:35.317Z,23.06
2023-02-15T07:54:01.979Z,23.28
2023-02-15T07:56:28.812Z,23.75
2023-02-15T07:58:55.515Z,23.33
2023-02-15T08:01:31.001Z,23.67
2023-02-15T08:03:59.830Z,24.68
2023-02-15T08:06:29.975Z,24.15
2023-02-15T08:08:56.655Z,24.01
2023-02-15T08:11:27.194Z,25.17
2023-02-15T08:13:55.248Z,24.93
2023-02-15T08:16:28.878Z,25.86
2023-02-15T08:18:56.039Z,24.69
2023-02-15T08:21:24.931Z,27.11
2023-02-15T08:23:53.700Z,30.16
2023-02-15T08:26:20.368Z,28.44
2023-02-15T08:28:46.986Z,31.16
2023-02-15T08:31:14.360Z,26.46
2023-02-15T08:33:41.571Z,29.28
2023-02-15T08:36:13.363Z,30.77
2023-02-15T08:38:40.057Z,32.17
2023-02-15T08:41:17.075Z,33.18
2023-02-15T08:43:44.126Z,31.55
2023-02-15T08:46:11.463Z,35.84
2023-02-15T08:48:38.169Z,34.86
2023-02-15T08:51:09.143Z,37.87
2023-02-15T08:53:35.900Z,38.21
2023-02-15T08:56:02.548Z,38.60
2023-02-15T08:58:29.948Z,38.07
2023-02-15T09:00:56.608Z,38.84
2023-02-15T09:03:23.219Z,40.00
2023-02-15T09:05:49.926Z,40.91
2023-02-15T09:08:16.733Z,37.67
2023-02-15T09:10:43.453Z,38.84
2023-02-15T09:13:10.054Z,37.10
2023-02-15T09:15:36.844Z,37.76
2023-02-15T09:18:03.543Z,37.32
2023-02-15T09:20:30.228Z,37.17
2023-02-15T09:22:59.037Z,37.33
2023-02-15T09:25:27.154Z,38.87
2023-02-15T09:27:53.863Z,37.35
2023-02-15T09:30:20.686Z,37.57
2023-02-15T09:32:48.302Z,37.38
2023-02-15T09:35:17.525Z,37.55
2023-02-15T09:37:44.213Z,38.57
2023-02-15T09:40:13.596Z,38.38
2023-02-15T09:42:46.168Z,37.91
2023-02-15T09:45:30.693Z,38.36
2023-02-15T09:48:09.391Z,39.52
2023-02-15T09:50:43.639Z,39.45
2023-02-15T09:53:47.324Z,39.27
2023-02-15T09:56:34.745Z,39.54
2023-02-15T09:59:17.745Z,40.04
2023-02-15T10:01:53.341Z,39.42
2023-02-15T10:04:38.768Z,39.87
2023-02-15T10:07:23.958Z,40.08
2023-02-15T10:09:53.266Z,41.03
2023-02-15T10:12:25.831Z,40.75
2023-02-15T10:15:14.361Z,41.02
2023-02-15T10:18:05.298Z,40.38
2023-02-15T10:20:38.614Z,39.58
2023-02-15T10:23:05.211Z,40.84
2023-02-15T10:25:46.729Z,40.78
2023-02-15T10:28:20.935Z,40.80
2023-02-15T10:30:51.236Z,42.17
2023-02-15T10:33:40.220Z,40.39
2023-02-15T10:36:25.925Z,40.49
2023-02-15T10:38:55.420Z,40.73
2023-02-15T10:41:30.957Z,40.51
2023-02-15T10:44:13.044Z,40.98
2023-02-15T10:46:51.459Z,41.58
2023-02-15T10:49:31.287Z,41.49
2023-02-15T10:52:34.394Z,41.57
2023-02-15T10:55:18.616Z,42.31
2023-02-15T10:58:17.939Z,42.40
2023-02-15T11:01:06.253Z,42.70
2023-02-15T11:03:42.312Z,42.03
2023-02-15T11:06:10.145Z,43.11
2023-02-15T11:08:39.646Z,41.36
2023-02-15T11:11:11.654Z,41.56
2023-02-15T11:13:40.844Z,42.44
2023-02-15T11:16:12.882Z,42.79
2023-02-15T11:19:15.031Z,41.32
2023-02-15T11:21:45.615Z,39.48
2023-02-15T11:24:17.399Z,40.19
2023-02-15T11:26:56.581Z,37.90
2023-02-15T11:29:30.410Z,38.25
2023-02-15T11:32:15.429Z,38.67
2023-02-15T11:35:10.310Z,36.89
2023-02-15T11:37:54.877Z,34.70
2023-02-15T11:40:49.663Z,35.73
2023-02-15T11:43:32.697Z,35.19
2023-02-15T11:45:59.440Z,32.60
2023-02-15T11:48:26.146Z,32.65
2023-02-15T11:50:52.752Z,32.46
2023-02-15T11:53:20.710Z,33.61
2023-02-15T11:55:48.259Z,33.62
2023-02-15T11:58:33.502Z,34.85
2023-02-15T12:01:39.104Z,35.58
2023-02-15T12:04:24.433Z,34.49
2023-02-15T12:07:14.591Z,35.73
2023-02-15T12:10:01.137Z,34.62
2023-02-15T12:12:29.407Z,36.00
2023-02-15T12:14:57.404Z,35.84
2023-02-15T12:17:32.228Z,34.25
2023-02-15T12:20:01.404Z,34.30
2023-02-15T12:22:32.735Z,34.11
2023-02-15T12:25:00.709Z,35.62
2023-02-15T12:27:34.344Z,34.40
2023-02-15T12:30:12.390Z,35.41
2023-02-15T12:32:59.984Z,34.69
2023-02-15T12:35:33.958Z,35.62
2023-02-15T12:38:22.631Z,33.94
2023-02-15T12:41:00.595Z,36.23
2023-02-15T12:43:30.905Z,35.28
2023-02-15T12:46:23.386Z,35.26
2023-02-15T12:49:08.227Z,35.57
2023-02-15T12:51:45.829Z,37.22
2023-02-15T12:54:27.150Z,36.52
2023-02-15T12:56:53.844Z,37.63
2023-02-15T12:59:23.294Z,38.48
2023-02-15T13:01:50.179Z,39.11
2023-02-15T13:04:24.109Z,37.76
2023-02-15T13:06:52.130Z,37.19
2023-02-15T13:09:31.700Z,37.38
2023-02-15T13:12:18.984Z,36.58
2023-02-15T13:14:46.401Z,36.75
2023-02-15T13:17:13.150Z,38.03
2023-02-15T13:19:52.913Z,37.61
2023-02-15T13:22:39.882Z,37.88
2023-02-15T13:25:12.930Z,38.10
2023-02-15T13:27:40.816Z,37.87
2023-02-15T13:30:26.597Z,38.18
2023-02-15T13:32:56.114Z,38.77
2023-02-15T13:35:22.895Z,39.09
2023-02-15T13:37:58.408Z,39.04
2023-02-15T13:40:39.452Z,38.43
2023-02-15T13:43:18.180Z,38.43
2023-02-15T13:46:15.950Z,38.69
2023-02-15T13:48:51.287Z,38.91
2023-02-15T13:51:44.336Z,37.09
2023-02-15T13:54:23.079Z,37.50
2023-02-15T13:57:16.153Z,36.45
2023-02-15T13:59:54.722Z,35.82
2023-02-15T14:02:50.565Z,36.53
2023-02-15T14:05:42.185Z,37.05
2023-02-15T14:08:29.721Z,37.28
2023-02-15T14:10:58.719Z,36.72
2023-02-15T14:13:43.824Z,36.05
2023-02-15T14:16:14.468Z,36.19
2023-02-15T14:18:54.539Z,35.69
2023-02-15T14:21:30.220Z,35.51
2023-02-15T14:24:38.513Z,36.45
2023-02-15T14:27:08.230Z,36.14
2023-02-15T14:29:48.935Z,37.13
2023-02-15T14:32:45.447Z,37.69
2023-02-15T14:35:20.126Z,35.65
2023-02-15T14:38:08.639Z,37.79
2023-02-15T14:40:38.997Z,38.71
2023-02-15T14:43:11.630Z,40.73
2023-02-15T14:45:50.443Z,41.35
2023-02-15T14:48:23.201Z,40.54
2023-02-15T14:50:49.843Z,41.00
2023-02-15T14:53:32.066Z,41.87
2023-02-15T14:56:13.726Z,41.89
2023-02-15T14:58:52.285Z,41.85
2023-02-15T15:01:34.942Z,41.05
2023-02-15T15:04:13.499Z,40.01
2023-02-15T15:06:42.360Z,39.96
2023-02-15T15:09:13.697Z,39.40
2023-02-15T15:11:45.279Z,39.28
2023-02-15T15:14:32.565Z,39.07
2023-02-15T15:17:06.312Z,40.23
2023-02-15T15:19:51.826Z,39.84
2023-02-15T15:22:25.462Z,41.14
2023-02-15T15:24:55.906Z,41.98
2023-02-15T15:27:50.886Z,40.71
2023-02-15T15:30:37.622Z,40.42
2023-02-15T15:33:44.817Z,40.44
2023-02-15T15:36:14.406Z,42.73
2023-02-15T15:39:18.523Z,43.53
2023-02-15T15:42:13.171Z,41.06
2023-02-15T15:45:04.565Z,42.14
2023-02-15T15:47:34.676Z,41.04
2023-02-15T15:50:01.376Z,40.83
2023-02-15T15:52:28.178Z,40.50
2023-02-15T15:55:06.163Z,40.15
2023-02-15T15:57:40.835Z,39.87
2023-02-15T16:00:19.733Z,40.18
2023-02-15T16:02:55.454Z,41.67
2023-02-15T16:05:22.302Z,43.47
2023-02-15T16:07:49.628Z,44.59
2023-02-15T16:10:23.134Z,44.45
2023-02-15T16:12:49.970Z,44.83
2023-02-15T16:15:24.419Z,44.41
2023-02-15T16:17:53.301Z,44.16
2023-02-15T16:20:28.246Z,43.81
2023-02-15T16:23:12.266Z,44.73
2023-02-15T16:26:06.672Z,43.76
2023-02-15T16:28:33.348Z,43.30
2023-02-15T16:31:06.889Z,45.12
2023-02-15T16:33:37.572Z,46.08
2023-02-15T16:36:04.795Z,45.18
2023-02-15T16:38:43.713Z,45.56
2023-02-15T16:41:13.921Z,44.38
2023-02-15T16:43:41.283Z,44.99
2023-02-15T16:46:13.214Z,43.70
2023-02-15T16:48:41.479Z,44.07
2023-02-15T16:51:08.184Z,44.32
2023-02-15T16:53:34.805Z,44.61
2023-02-15T16:56:03.387Z,46.01
2023-02-15T16:58:32.425Z,43.47
2023-02-15T17:00:59.695Z,45.21
2023-02-15T17:03:27.043Z,46.24
2023-02-15T17:05:58.422Z,48.68
2023-02-15T17:08:30.354Z,47.23
2023-02-15T17:11:00.598Z,48.43
2023-02-15T17:13:28.126Z,49.37
2023-02-15T17:16:01.751Z,50.26
2023-02-15T17:18:40.505Z,47.78
2023-02-15T17:21:18.984Z,48.05
2023-02-15T17:23:49.879Z,48.55
2023-02-15T17:26:36.836Z,47.54
2023-02-15T17:29:12.973Z,48.37
2023-02-15T17:31:40.448Z,48.54
2023-02-15T17:34:09.836Z,49.98
2023-02-15T17:36:36.869Z,52.45
2023-02-15T17:39:06.837Z,54.44
2023-02-15T17:41:35.418Z,54.00
2023-02-15T17:44:03.282Z,53.28
2023-02-15T17:46:33.447Z,51.45
2023-02-15T17:49:00.920Z,49.28
2023-02-15T17:51:27.979Z,48.16
2023-02-15T17:53:56.022Z,48.19
2023-02-15T17:56:23.078Z,47.61
2023-02-15T17:58:50.377Z,47.46
2023-02-15T18:01:18.479Z,49.68
2023-02-15T18:03:49.629Z,57.40
2023-02-15T18:06:17.030Z,67.93
2023-02-15T18:08:44.194Z,63.05
2023-02-15T18:11:11.405Z,54.36
2023-02-15T18:13:38.323Z,49.99
2023-02-15T18:16:05.207Z,47.86
2023-02-15T18:18:31.891Z,45.34
2023-02-15T18:20:58.533Z,44.48
2023-02-15T18:23:25.226Z,43.61
2023-02-15T18:25:51.929Z,41.63
2023-02-15T18:28:18.547Z,40.41
2023-02-15T18:30:45.259Z,38.10
2023-02-15T18:33:34.680Z,36.82
2023-02-15T18:36:05.405Z,37.36
2023-02-15T18:38:32.078Z,37.06
2023-02-15T18:40:58.720Z,35.79
2023-02-15T18:43:25.380Z,33.86
2023-02-15T18:45:52.149Z,32.63
2023-02-15T18:48:18.786Z,33.08
2023-02-15T18:50:45.471Z,31.66
2023-02-15T18:53:17.491Z,30.36
2023-02-15T18:55:44.232Z,29.59
2023-02-15T18:58:21.220Z,31.43
2023-02-15T19:00:47.979Z,31.88
2023-02-15T19:03:14.790Z,31.88
2023-02-15T19:05:42.915Z,34.47
2023-02-15T19:08:15.759Z,41.20
2023-02-15T19:10:42.588Z,41.15
2023-02-15T19:13:12.721Z,33.32
2023-02-15T19:15:39.372Z,31.54
2023-02-15T19:18:06.251Z,31.01
2023-02-15T19:20:37.510Z,29.32
2023-02-15T19:23:04.710Z,28.68
2023-02-15T19:25:32.129Z,29.20
2023-02-15T19:27:59.033Z,28.34
2023-02-15T19:30:27.299Z,28.03
2023-02-15T19:32:53.945Z,26.80
2023-02-15T19:35:23.412Z,26.91
2023-02-15T19:37:51.405Z,26.40
2023-02-15T19:40:19.088Z,26.51
2023-02-15T19:42:45.722Z,27.84
2023-02-15T19:45:22.421Z,26.64
2023-02-15T19:47:49.309Z,26.66
2023-02-15T19:50:17.445Z,30.54
2023-02-15T19:52:44.691Z,59.48
2023-02-15T19:55:27.828Z,59.53
2023-02-15T19:57:55.262Z,39.66
2023-02-15T20:00:23.773Z,30.51
2023-02-15T20:02:50.475Z,29.07
2023-02-15T20:05:18.049Z,27.93
2023-02-15T20:07:46.762Z,28.26
2023-02-15T20:10:21.824Z,28.35
2023-02-15T20:12:48.694Z,28.05
2023-02-15T20:15:18.324Z,27.38
2023-02-15T20:17:45.050Z,28.04
2023-02-15T20:20:12.273Z,29.06
2023-02-15T20:22:39.054Z,28.50
2023-02-15T20:25:05.966Z,27.70
2023-02-15T20:27:32.596Z,28.80
2023-02-15T20:29:59.298Z,29.05
2023-02-15T20:32:26.053Z,29.91
2023-02-15T20:34:52.895Z,29.15
2023-02-15T20:37:23.199Z,30.15
2023-02-15T20:39:50.632Z,29.69
2023-02-15T20:42:21.415Z,29.98
2023-02-15T20:44:50.011Z,31.15
2023-02-15T20:47:16.714Z,30.26
2023-02-15T20:49:46.474Z,30.80
2023-02-15T20:52:33.496Z,31.92
2023-02-15T20:55:00.191Z,31.71
2023-02-15T20:57:26.896Z,32.13
2023-02-15T20:59:53.578Z,32.88
2023-02-15T21:02:21.138Z,32.44
2023-02-15T21:04:47.866Z,34.04
2023-02-15T21:07:17.285Z,32.66
2023-02-15T21:09:44.646Z,33.15
2023-02-15T21:12:18.226Z,33.78
2023-02-15T21:14:45.226Z,33.38
2023-02-15T21:17:12.711Z,34.10
2023-02-15T21:19:41.080Z,34.02
2023-02-15T21:22:12.918Z,34.27
2023-02-15T21:24:39.536Z,35.07
2023-02-15T21:27:06.698Z,35.31
2023-02-15T21:29:33.395Z,35.34
2023-02-15T21:32:00.162Z,35.48
2023-02-15T21:34:26.886Z,35.48
2023-02-15T21:36:53.539Z,37.15
2023-02-15T21:39:26.979Z,36.51
2023-02-15T21:41:54.363Z,37.43
2023-02-15T21:44:24.168Z,36.79
2023-02-15T21:46:50.839Z,37.57
2023-02-15T21:49:17.531Z,36.37
2023-02-15T21:51:44.134Z,36.62
2023-02-15T21:54:12.714Z,36.47
2023-02-15T21:56:39.412Z,36.06
2023-02-15T21:59:12.578Z,36.22
2023-02-15T22:01:41.002Z,37.41
2023-02-15T22:04:15.577Z,35.92
2023-02-15T22:06:42.255Z,36.45
2023-02-15T22:09:20.159Z,36.32
2023-02-15T22:11:46.849Z,35.66
2023-02-15T22:14:38.269Z,37.56
2023-02-15T22:17:21.215Z,37.87
2023-02-15T22:19:48.654Z,38.06
2023-02-15T22:22:15.879Z,40.18
2023-02-15T22:24:42.519Z,39.23
2023-02-15T22:27:23.301Z,37.38
2023-02-15T22:29:49.976Z,37.90
2023-02-15T22:32:22.470Z,37.35
2023-02-15T22:34:49.427Z,38.58
2023-02-15T22:37:16.093Z,37.07
2023-02-15T22:39:42.763Z,36.54
2023-02-15T22:42:25.888Z,36.10
2023-02-15T22:44:56.219Z,37.20
2023-02-15T22:47:24.686Z,36.19
2023-02-15T22:49:51.362Z,37.18
2023-02-15T22:52:18.108Z,36.58
2023-02-15T22:54:45.002Z,35.43
2023-02-15T22:57:30.510Z,37.26
2023-02-15T22:59:57.366Z,36.53
2023-02-15T23:02:23.973Z,36.22
2023-02-15T23:04:50.590Z,35.36
2023-02-15T23:07:17.971Z,34.83
2023-02-15T23:09:45.034Z,34.94
2023-02-15T23:12:28.969Z,34.25
2023-02-15T23:14:55.720Z,35.74
2023-02-15T23:17:22.394Z,34.56
2023-02-15T23:19:49.029Z,34.05
2023-02-15T23:22:16.087Z,34.53
2023-02-15T23:24:43.038Z,34.62
2023-02-15T23:27:17.573Z,34.23
2023-02-15T23:29:44.199Z,34.57
2023-02-15T23:32:13.797Z,33.69
2023-02-15T23:34:40.654Z,35.30
2023-02-15T23:37:12.332Z,34.71
2023-02-15T23:39:38.944Z,34.23
2023-02-15T23:42:12.622Z,33.59
2023-02-15T23:44:39.396Z,33.75
2023-02-15T23:47:06.306Z,33.73
2023-02-15T23:49:32.939Z,33.46
2023-02-15T23:51:59.705Z,32.96
2023-02-15T23:54:26.554Z,32.25
2023-02-15T23:56:55.086Z,32.86
2023-02-15T23:59:23.135Z,32.47
